Time;durP1;ratioP1;P1;durP2;ratioP2;P2;SDS_P1;SDS_P2;PMS_P1;PMS_P2;Temp;Humidity;BMP_temperature;BMP_pressure;BME280_temperature;BME280_humidity;BME280_pressure;Samples;Min_cycle;Max_cycle;Signal;HPM_P1;HPM_P2
2022/11/02 00:04:41;;;;;;;6.30;4.90;;;14.70;46.90;;;;;;10505988;28;20660;-71
2022/11/02 00:09:44;;;;;;;6.43;4.87;;;14.70;46.80;;;;;;10507306;28;20216;-71
2022/11/02 00:14:47;;;;;;;4.70;4.30;;;14.60;46.80;;;;;;10505441;28;20265;-71
2022/11/02 00:19:51;;;;;;;5.13;4.63;;;14.60;46.90;;;;;;10502748;28;20220;-71
2022/11/02 00:24:55;;;;;;;5.37;4.87;;;14.50;46.80;;;;;;10507162;28;20228;-71
2022/11/02 00:29:59;;;;;;;4.73;4.33;;;14.50;47.10;;;;;;10504568;28;20227;-71
2022/11/02 00:35:04;;;;;;;6.20;4.90;;;14.40;46.80;;;;;;10505977;28;20243;-71
2022/11/02 00:40:08;;;;;;;4.80;4.40;;;14.30;47.00;;;;;;10505285;28;20228;-71
2022/11/02 00:45:11;;;;;;;7.93;4.37;;;14.20;47.10;;;;;;10504035;28;20288;-71
2022/11/02 00:50:16;;;;;;;5.40;4.50;;;14.10;47.20;;;;;;10506161;28;20723;-71
2022/11/02 00:55:19;;;;;;;6.23;4.90;;;14.10;47.40;;;;;;10504805;28;20236;-71
2022/11/02 01:00:22;;;;;;;5.07;4.50;;;14.00;47.10;;;;;;10503416;28;20273;-71
2022/11/02 01:05:27;;;;;;;4.93;4.03;;;13.90;47.20;;;;;;10501352;28;20733;-71
2022/11/02 01:10:30;;;;;;;5.53;4.07;;;13.90;47.30;;;;;;10506393;28;20724;-71
2022/11/02 01:15:33;;;;;;;7.07;4.80;;;13.80;47.20;;;;;;10501391;28;20231;-71
2022/11/02 01:20:37;;;;;;;6.10;4.07;;;13.80;47.10;;;;;;10507630;28;20219;-71
2022/11/02 01:25:45;;;;;;;4.43;4.00;;;13.80;47.00;;;;;;10510470;28;20231;-71
2022/11/02 01:30:48;;;;;;;5.23;4.30;;;13.80;47.00;;;;;;10517073;28;20222;-71
2022/11/02 01:35:53;;;;;;;4.30;3.90;;;13.80;47.70;;;;;;10513727;28;20285;-71
2022/11/02 01:40:56;;;;;;;4.80;4.30;;;13.70;47.10;;;;;;10513269;28;20220;-71
2022/11/02 01:46:04;;;;;;;4.50;3.57;;;13.60;47.10;;;;;;10505469;28;20228;-71
2022/11/02 01:51:13;;;;;;;3.90;3.37;;;13.60;47.20;;;;;;10511756;28;20232;-71
2022/11/02 01:56:19;;;;;;;3.93;3.63;;;13.60;47.30;;;;;;10511549;28;20239;-71
2022/11/02 02:01:23;;;;;;;6.67;4.00;;;13.50;47.30;;;;;;10512723;28;20232;-71
2022/11/02 02:06:27;;;;;;;4.00;3.60;;;13.50;47.30;;;;;;10515659;28;20226;-71
2022/11/02 02:11:33;;;;;;;4.70;4.00;;;13.50;47.40;;;;;;10510598;28;20239;-71
2022/11/02 02:16:53;;;;;;;3.80;3.50;;;13.40;47.10;;;;;;10513169;28;20228;-71
2022/11/02 02:22:35;;;;;;;3.83;3.43;;;13.40;47.20;;;;;;10509406;28;20273;-71
2022/11/02 02:28:02;;;;;;;4.20;3.80;;;13.40;47.30;;;;;;10507149;28;20224;-71
2022/11/02 02:33:10;;;;;;;4.27;3.60;;;13.30;47.00;;;;;;10508904;28;20434;-71
2022/11/02 02:38:17;;;;;;;5.03;4.50;;;13.30;47.20;;;;;;10509530;28;20242;-71
2022/11/02 02:43:29;;;;;;;4.80;4.30;;;13.20;47.00;;;;;;10510364;28;20239;-71
2022/11/02 02:48:36;;;;;;;4.50;4.10;;;13.20;47.60;;;;;;10507034;28;20230;-71
2022/11/02 02:53:43;;;;;;;4.10;3.70;;;13.10;46.90;;;;;;10509830;28;20250;-71
2022/11/02 02:58:55;;;;;;;3.70;3.40;;;13.00;47.00;;;;;;10508277;28;20277;-71
2022/11/02 03:03:58;;;;;;;3.70;3.40;;;13.00;47.40;;;;;;10510507;28;20232;-71
2022/11/02 03:09:09;;;;;;;4.47;3.93;;;12.90;47.40;;;;;;10506525;28;20265;-71
2022/11/02 03:14:28;;;;;;;3.97;3.57;;;12.90;47.30;;;;;;10514298;28;20228;-71
2022/11/02 03:19:41;;;;;;;3.87;3.57;;;12.90;47.50;;;;;;10508933;28;20228;-71
2022/11/02 03:24:49;;;;;;;4.37;3.97;;;12.90;47.40;;;;;;10505633;28;20943;-71
2022/11/02 03:30:00;;;;;;;11.00;7.47;;;12.90;47.30;;;;;;10508562;28;20230;-71
2022/11/02 03:35:08;;;;;;;13.20;8.57;;;12.90;47.20;;;;;;10503383;28;20282;-71
2022/11/02 03:40:17;;;;;;;21.13;11.30;;;12.80;47.00;;;;;;10506641;28;20223;-71
2022/11/02 03:45:24;;;;;;;14.13;9.37;;;12.80;47.60;;;;;;10505716;28;20228;-71
2022/11/02 03:50:27;;;;;;;12.20;7.77;;;12.70;46.90;;;;;;10505167;28;20226;-71
2022/11/02 03:55:35;;;;;;;9.03;6.77;;;12.70;47.00;;;;;;10510177;28;20714;-71
2022/11/02 04:00:47;;;;;;;11.93;8.67;;;12.70;47.90;;;;;;10509883;28;20706;-71
2022/11/02 04:05:50;;;;;;;10.03;8.20;;;12.60;47.00;;;;;;10505110;28;20228;-71
2022/11/02 04:16:16;;;;;;;6.33;5.73;;;12.60;47.10;;;;;;10503427;28;20224;-71
2022/11/02 04:21:19;;;;;;;5.03;4.53;;;12.60;47.60;;;;;;10508736;28;20728;-71
2022/11/02 04:26:22;;;;;;;5.30;4.80;;;12.60;46.90;;;;;;10505901;28;20304;-71
2022/11/02 04:31:26;;;;;;;5.83;3.83;;;12.60;46.80;;;;;;10510151;28;20253;-71
2022/11/02 04:36:31;;;;;;;4.40;4.00;;;12.60;46.60;;;;;;10502001;28;20243;-71
2022/11/02 04:41:43;;;;;;;3.50;3.20;;;12.50;46.60;;;;;;10504826;28;20235;-71
2022/11/02 04:46:48;;;;;;;4.43;3.37;;;12.50;46.60;;;;;;10504959;28;20227;-71
2022/11/02 04:51:51;;;;;;;6.27;3.50;;;12.50;46.50;;;;;;10505948;28;20244;-71
2022/11/02 04:56:54;;;;;;;5.80;3.80;;;12.40;46.30;;;;;;10500089;28;20663;-71
2022/11/02 05:01:59;;;;;;;6.37;3.83;;;12.30;46.40;;;;;;10502459;28;20230;-71
2022/11/02 05:07:05;;;;;;;8.13;4.73;;;12.30;46.60;;;;;;10508388;28;20220;-71
2022/11/02 05:12:08;;;;;;;6.20;5.47;;;12.20;46.20;;;;;;10500852;28;20232;-71
2022/11/02 05:17:15;;;;;;;6.37;5.00;;;12.20;46.20;;;;;;10510762;28;20242;-71
2022/11/02 05:22:18;;;;;;;5.13;4.20;;;12.10;46.10;;;;;;10500911;28;20235;-71
2022/11/02 05:27:21;;;;;;;4.60;4.07;;;12.00;46.60;;;;;;10503483;28;20240;-71
2022/11/02 05:32:27;;;;;;;4.57;3.87;;;12.00;46.60;;;;;;10507877;28;20231;-71
2022/11/02 05:37:30;;;;;;;4.40;4.00;;;11.90;46.30;;;;;;10499433;28;20236;-71
2022/11/02 05:42:34;;;;;;;3.20;2.90;;;11.80;46.60;;;;;;10506596;28;20251;-71
2022/11/02 05:47:38;;;;;;;3.60;3.30;;;11.80;46.90;;;;;;10497128;28;20232;-71
2022/11/02 05:52:41;;;;;;;4.57;3.27;;;11.80;47.00;;;;;;10503716;28;20267;-71
2022/11/02 05:57:49;;;;;;;3.37;3.10;;;11.70;46.90;;;;;;10529212;28;20232;-72
2022/11/02 06:02:58;;;;;;;3.53;3.23;;;11.70;47.10;;;;;;10529137;28;20236;-72
2022/11/02 06:08:01;;;;;;;3.03;2.60;;;11.70;47.00;;;;;;10536055;28;20228;-72
2022/11/02 06:13:04;;;;;;;3.87;2.70;;;11.70;47.00;;;;;;10536212;28;20709;-72
2022/11/02 06:18:09;;;;;;;3.70;3.30;;;11.70;47.00;;;;;;10536490;28;20243;-72
2022/11/02 06:23:16;;;;;;;4.17;3.80;;;11.80;47.10;;;;;;10536181;28;20897;-72
2022/11/02 06:28:20;;;;;;;3.47;3.17;;;11.80;47.00;;;;;;10535960;28;20566;-72
2022/11/02 06:33:25;;;;;;;3.77;3.47;;;11.80;46.90;;;;;;10535932;28;20231;-72
2022/11/02 06:38:28;;;;;;;4.37;3.80;;;11.80;46.80;;;;;;10535510;28;20278;-72
2022/11/02 06:43:31;;;;;;;3.70;3.40;;;11.80;47.50;;;;;;10535236;28;20224;-72
2022/11/02 06:48:35;;;;;;;5.10;3.50;;;11.80;46.70;;;;;;10535089;28;20231;-72
2022/11/02 06:53:38;;;;;;;4.23;3.40;;;11.80;46.70;;;;;;10534803;28;20236;-72
2022/11/02 06:58:41;;;;;;;3.33;3.07;;;11.80;46.80;;;;;;10534423;28;20644;-71
2022/11/02 07:03:46;;;;;;;3.93;3.57;;;11.80;46.90;;;;;;10534682;28;20239;-72
2022/11/02 07:08:49;;;;;;;4.20;3.60;;;11.80;47.00;;;;;;10534561;28;20629;-72
2022/11/02 07:13:52;;;;;;;4.63;4.20;;;11.80;47.10;;;;;;10534076;28;20235;-72
2022/11/02 07:18:56;;;;;;;4.40;4.00;;;11.80;47.30;;;;;;10533040;28;20227;-72
2022/11/02 07:23:59;;;;;;;5.70;4.40;;;11.90;47.60;;;;;;10533704;28;20268;-72
2022/11/02 07:29:03;;;;;;;4.17;3.70;;;11.90;47.50;;;;;;10533145;28;20227;-72
2022/11/02 07:34:07;;;;;;;4.77;4.37;;;11.90;47.50;;;;;;10533336;28;20831;-72
2022/11/02 07:39:17;;;;;;;5.20;4.30;;;12.00;47.90;;;;;;10533146;28;20242;-72
2022/11/02 07:44:20;;;;;;;5.90;4.90;;;12.00;47.70;;;;;;10531134;28;20231;-70
2022/11/02 07:49:25;;;;;;;4.47;4.07;;;12.00;48.10;;;;;;10513163;28;20236;-71
2022/11/02 07:54:28;;;;;;;4.97;4.13;;;12.10;48.70;;;;;;10513797;28;20577;-71
2022/11/02 07:59:31;;;;;;;4.73;4.27;;;12.10;48.70;;;;;;10512977;28;20273;-71
2022/11/02 08:04:36;;;;;;;5.07;4.57;;;12.20;49.30;;;;;;10511874;28;20232;-70
2022/11/02 08:09:44;;;;;;;4.67;4.27;;;12.30;50.20;;;;;;10511431;28;20232;-71
2022/11/02 08:14:47;;;;;;;5.00;4.57;;;12.50;50.40;;;;;;10517466;28;20257;-71
2022/11/02 08:19:51;;;;;;;5.60;4.43;;;12.70;50.80;;;;;;10510878;28;20220;-71
2022/11/02 08:24:54;;;;;;;5.00;4.50;;;12.90;51.50;;;;;;10508800;28;20624;-71
2022/11/02 08:29:57;;;;;;;4.87;4.37;;;13.10;51.40;;;;;;10512166;28;20635;-71
2022/11/02 08:35:02;;;;;;;5.33;4.53;;;13.40;51.80;;;;;;10510923;28;20227;-71
2022/11/02 08:40:07;;;;;;;4.80;4.30;;;13.60;52.60;;;;;;10507372;28;20254;-71
2022/11/02 08:45:11;;;;;;;4.73;4.30;;;13.90;52.70;;;;;;10512861;28;20479;-71
2022/11/02 08:50:15;;;;;;;5.30;4.30;;;14.20;52.20;;;;;;10508821;28;20239;-71
2022/11/02 08:55:19;;;;;;;4.30;3.90;;;14.40;51.70;;;;;;10504595;28;20280;-71
2022/11/02 09:00:24;;;;;;;8.03;4.40;;;14.60;52.00;;;;;;10507232;28;20290;-71
2022/11/02 09:05:28;;;;;;;3.80;2.90;;;14.70;52.00;;;;;;10507885;28;20713;-71
2022/11/02 09:10:34;;;;;;;3.50;2.80;;;14.90;51.80;;;;;;10502609;28;20298;-71
2022/11/02 09:15:38;;;;;;;3.20;2.90;;;15.20;52.20;;;;;;10504216;28;20223;-71
2022/11/02 09:20:43;;;;;;;2.93;2.47;;;15.40;51.60;;;;;;10501595;28;20321;-71
2022/11/02 09:25:46;;;;;;;3.27;2.80;;;15.50;51.30;;;;;;10502402;28;20220;-71
2022/11/02 09:30:49;;;;;;;6.77;2.80;;;15.70;50.90;;;;;;10504299;28;20226;-71
2022/11/02 09:35:54;;;;;;;2.80;2.60;;;15.80;51.00;;;;;;10506590;28;20838;-71
2022/11/02 09:41:08;;;;;;;4.57;2.73;;;15.90;50.70;;;;;;10505420;28;20232;-71
2022/11/02 09:46:15;;;;;;;4.77;3.00;;;16.00;50.60;;;;;;10513352;28;20251;-71
2022/11/02 09:51:25;;;;;;;5.13;2.60;;;16.10;50.40;;;;;;10513077;28;20231;-71
2022/11/02 09:56:31;;;;;;;4.10;2.37;;;16.20;50.30;;;;;;10514106;28;20276;-71
2022/11/02 10:01:55;;;;;;;3.97;2.40;;;16.30;50.10;;;;;;10516460;28;20227;-71
2022/11/02 10:07:09;;;;;;;2.90;2.23;;;16.50;50.50;;;;;;10515199;28;20215;-71
2022/11/02 10:12:14;;;;;;;3.73;2.50;;;16.60;49.40;;;;;;10504790;28;20232;-71
2022/11/02 10:17:21;;;;;;;4.50;2.47;;;16.70;50.00;;;;;;10511046;28;20242;-71
2022/11/02 10:22:29;;;;;;;3.53;1.77;;;16.80;49.40;;;;;;10512091;28;20238;-71
2022/11/02 10:27:36;;;;;;;3.03;1.90;;;17.00;48.90;;;;;;10511700;28;20290;-71
2022/11/02 10:32:41;;;;;;;4.60;2.00;;;17.10;48.90;;;;;;10518823;22;20274;-67
2022/11/02 10:38:03;;;;;;;3.63;1.83;;;17.20;48.60;;;;;;10471382;28;20760;-67
2022/11/02 10:43:21;;;;;;;4.27;2.40;;;17.30;47.70;;;;;;10467551;28;20234;-67
2022/11/02 10:48:34;;;;;;;5.27;2.10;;;17.40;46.50;;;;;;10464942;28;20224;-67
2022/11/02 10:53:42;;;;;;;5.77;1.77;;;17.50;46.50;;;;;;10463324;28;20256;-67
2022/11/02 10:58:54;;;;;;;2.27;1.80;;;17.50;46.60;;;;;;10465095;28;20229;-67
2022/11/02 11:04:00;;;;;;;2.93;1.47;;;17.50;46.50;;;;;;10466749;28;20725;-67
2022/11/02 11:09:07;;;;;;;3.43;1.50;;;17.60;46.60;;;;;;10464096;28;20612;-67
2022/11/02 11:14:18;;;;;;;4.70;1.67;;;17.60;45.70;;;;;;10469390;28;20788;-67
2022/11/02 11:19:48;;;;;;;1.63;1.30;;;17.60;45.50;;;;;;10468898;28;20228;-67
2022/11/02 11:24:53;;;;;;;2.90;1.40;;;17.60;45.80;;;;;;10461805;28;20266;-69
2022/11/02 11:29:58;;;;;;;2.77;1.40;;;17.60;46.10;;;;;;10467586;28;20232;-67
2022/11/02 11:35:04;;;;;;;4.87;1.90;;;17.60;45.70;;;;;;10463393;28;20642;-67
2022/11/02 11:40:17;;;;;;;2.57;1.73;;;17.70;45.40;;;;;;10467546;28;20239;-67
2022/11/02 11:45:23;;;;;;;3.70;1.50;;;17.60;44.80;;;;;;10465157;28;20232;-67
2022/11/02 11:50:26;;;;;;;1.97;1.40;;;17.70;44.80;;;;;;10464345;28;20228;-67
2022/11/02 11:55:33;;;;;;;2.67;1.53;;;17.70;45.70;;;;;;10463644;28;20248;-67
2022/11/02 12:00:36;;;;;;;3.50;1.50;;;17.70;44.80;;;;;;10460500;28;20228;-67
2022/11/02 12:05:54;;;;;;;3.37;1.53;;;17.70;45.20;;;;;;10467627;28;20229;-67
2022/11/02 12:11:09;;;;;;;3.27;1.53;;;17.60;43.70;;;;;;10465607;28;20224;-67
2022/11/02 12:16:29;;;;;;;3.27;2.10;;;17.70;44.10;;;;;;10466840;28;20596;-67
2022/11/02 12:21:50;;;;;;;4.53;1.80;;;17.70;43.80;;;;;;10463185;28;20251;-67
2022/11/02 12:27:10;;;;;;;4.77;1.73;;;17.60;44.10;;;;;;10462080;28;20627;-67
2022/11/02 12:32:25;;;;;;;4.57;1.80;;;17.70;44.10;;;;;;10464017;28;20232;-67
2022/11/02 12:37:39;;;;;;;4.87;1.80;;;17.80;43.30;;;;;;10463939;28;20247;-67
2022/11/02 12:42:52;;;;;;;3.70;1.80;;;17.80;43.70;;;;;;10463040;28;20225;-67
2022/11/02 12:47:57;;;;;;;3.13;1.40;;;17.80;43.50;;;;;;10468557;28;20228;-67
2022/11/02 12:53:15;;;;;;;5.13;2.73;;;17.80;43.80;;;;;;10461491;28;20287;-67
2022/11/02 12:58:23;;;;;;;4.40;2.00;;;17.80;43.10;;;;;;10466575;28;20228;-67
2022/11/02 13:03:36;;;;;;;3.30;1.57;;;17.80;43.40;;;;;;10463506;28;20239;-67
2022/11/02 13:08:45;;;;;;;2.67;1.20;;;17.80;42.90;;;;;;10464442;28;20678;-67
2022/11/02 13:13:53;;;;;;;2.57;1.40;;;17.80;43.80;;;;;;10458351;28;20281;-67
2022/11/02 13:19:00;;;;;;;3.07;1.43;;;17.90;43.40;;;;;;10472499;28;20274;-67
2022/11/02 13:24:05;;;;;;;3.17;1.60;;;17.90;43.90;;;;;;10470873;28;20236;-67
2022/11/02 13:29:17;;;;;;;2.57;1.30;;;17.90;43.30;;;;;;10470952;28;20228;-67
2022/11/02 13:34:32;;;;;;;3.63;1.70;;;17.90;42.90;;;;;;10471313;28;20241;-67
2022/11/02 13:39:38;;;;;;;3.77;1.67;;;17.90;42.40;;;;;;10467975;28;20663;-68
2022/11/02 13:45:13;;;;;;;2.90;1.40;;;18.00;44.20;;;;;;10471208;28;20298;-66
2022/11/02 13:50:22;;;;;;;2.60;1.27;;;18.10;43.30;;;;;;10465792;28;20306;-66
2022/11/02 13:55:39;;;;;;;3.10;1.40;;;18.10;43.80;;;;;;10465653;28;20926;-67
2022/11/02 14:00:49;;;;;;;2.73;1.30;;;18.20;43.20;;;;;;10461686;28;20760;-67
2022/11/02 14:05:55;;;;;;;3.40;1.40;;;18.30;43.70;;;;;;10461006;28;20227;-67
2022/11/02 14:11:05;;;;;;;3.00;1.60;;;18.40;43.30;;;;;;10464724;28;20228;-67
2022/11/02 14:16:10;;;;;;;3.00;1.33;;;18.50;42.90;;;;;;10460181;28;20285;-67
2022/11/02 14:21:42;;;;;;;4.83;1.40;;;18.50;43.60;;;;;;10458314;28;20252;-68
2022/11/02 14:26:56;;;;;;;2.47;1.60;;;18.60;42.60;;;;;;10464817;28;20241;-67
2022/11/02 14:32:06;;;;;;;4.10;1.57;;;18.60;41.80;;;;;;10459590;28;20229;-68
2022/11/02 14:37:26;;;;;;;4.83;1.80;;;18.70;41.70;;;;;;10455638;28;20375;-68
2022/11/02 14:42:58;;;;;;;2.83;1.43;;;18.60;41.30;;;;;;10461603;28;20232;-68
2022/11/02 14:48:05;;;;;;;2.97;1.43;;;18.60;41.50;;;;;;10466714;28;20233;-67
2022/11/02 14:53:23;;;;;;;3.47;1.80;;;18.50;42.00;;;;;;10472413;28;20684;-67
2022/11/02 14:58:33;;;;;;;5.43;1.83;;;18.50;42.20;;;;;;10463701;28;20229;-66
2022/11/02 15:03:40;;;;;;;4.87;1.80;;;18.50;41.60;;;;;;10463682;28;20228;-66
2022/11/02 15:08:51;;;;;;;2.87;1.60;;;18.40;41.90;;;;;;10471482;28;20217;-66
2022/11/02 15:13:54;;;;;;;4.03;1.53;;;18.30;41.80;;;;;;10469018;28;20251;-66
2022/11/02 15:19:38;;;;;;;2.53;1.60;;;18.20;42.80;;;;;;10468215;28;20239;-66
2022/11/02 15:24:43;;;;;;;2.07;1.40;;;18.20;42.20;;;;;;10469776;28;20293;-66
2022/11/02 15:29:48;;;;;;;3.00;1.67;;;18.20;42.50;;;;;;10470978;28;20227;-66
2022/11/02 15:34:55;;;;;;;3.00;1.90;;;18.10;42.50;;;;;;10467498;28;20216;-66
2022/11/02 15:40:01;;;;;;;3.13;1.80;;;18.00;42.30;;;;;;10470155;28;20228;-66
2022/11/02 15:45:21;;;;;;;3.30;1.40;;;18.00;42.50;;;;;;10461973;28;20638;-66
2022/11/02 15:50:54;;;;;;;4.53;2.83;;;17.80;42.20;;;;;;10467601;28;20251;-66
2022/11/02 15:56:24;;;;;;;6.30;3.73;;;17.80;42.20;;;;;;10464512;28;20228;-66
2022/11/02 16:01:28;;;;;;;5.60;3.07;;;17.70;42.20;;;;;;10460854;28;20620;-65
2022/11/02 16:06:36;;;;;;;4.00;3.00;;;17.60;43.00;;;;;;10467175;28;20228;-65
2022/11/02 16:11:39;;;;;;;4.53;3.10;;;17.60;43.00;;;;;;10461520;28;20231;-65
2022/11/02 16:16:46;;;;;;;3.17;2.70;;;17.60;43.40;;;;;;10467176;28;20236;-66
2022/11/02 16:21:51;;;;;;;5.33;2.93;;;17.60;42.60;;;;;;10461498;28;20232;-67
2022/11/02 16:27:00;;;;;;;7.83;4.10;;;17.60;42.70;;;;;;10471915;28;20233;-67
2022/11/02 16:32:08;;;;;;;6.23;4.70;;;17.60;43.10;;;;;;10463484;28;20232;-67
2022/11/02 16:37:16;;;;;;;7.63;4.93;;;17.60;42.70;;;;;;10463167;28;20232;-67
2022/11/02 16:42:23;;;;;;;5.13;4.63;;;17.50;41.80;;;;;;10456749;28;20375;-67
2022/11/02 16:47:35;;;;;;;7.60;6.83;;;17.40;41.60;;;;;;10453148;28;20315;-67
2022/11/02 16:52:40;;;;;;;7.00;6.10;;;17.30;41.40;;;;;;10451759;28;20220;-67
2022/11/02 16:57:45;;;;;;;7.37;6.10;;;17.10;41.80;;;;;;10452293;28;20229;-67
2022/11/02 17:02:48;;;;;;;6.43;5.30;;;16.90;41.60;;;;;;10462631;28;20235;-67
2022/11/02 17:07:59;;;;;;;6.70;5.77;;;16.80;41.90;;;;;;10461671;28;20232;-67
2022/11/02 17:13:05;;;;;;;7.23;5.83;;;16.60;41.20;;;;;;10464945;28;20274;-67
2022/11/02 17:18:26;;;;;;;6.50;5.90;;;16.50;41.70;;;;;;10462336;28;20240;-67
2022/11/02 17:23:32;;;;;;;6.90;6.20;;;16.50;41.30;;;;;;10461009;28;20239;-66
2022/11/02 17:28:44;;;;;;;9.10;8.00;;;16.30;41.50;;;;;;10461168;28;20228;-66
2022/11/02 17:33:48;;;;;;;11.20;10.10;;;16.30;40.80;;;;;;10467810;28;20743;-66
2022/11/02 17:38:53;;;;;;;17.60;15.70;;;16.20;41.50;;;;;;10466474;28;20710;-66
2022/11/02 17:43:56;;;;;;;22.60;18.60;;;16.00;41.30;;;;;;10467242;28;20845;-66
2022/11/02 17:48:59;;;;;;;22.57;20.13;;;15.90;41.60;;;;;;10466269;28;20247;-66
2022/11/02 17:54:04;;;;;;;22.90;20.40;;;15.80;41.60;;;;;;10466120;28;20229;-66
2022/11/02 17:59:08;;;;;;;21.23;18.07;;;15.60;41.50;;;;;;10462600;28;20247;-66
2022/11/02 18:04:11;;;;;;;23.77;19.63;;;15.60;41.80;;;;;;10471804;28;20224;-68
2022/11/02 18:09:17;;;;;;;19.00;16.23;;;15.50;41.80;;;;;;10471979;28;20594;-66
2022/11/02 18:14:21;;;;;;;15.10;12.40;;;15.40;41.60;;;;;;10472346;28;20228;-66
2022/11/02 18:19:24;;;;;;;14.73;12.37;;;15.40;41.70;;;;;;10470932;28;20232;-66
2022/11/02 18:24:29;;;;;;;9.77;8.03;;;15.30;41.60;;;;;;10461231;28;20228;-66
2022/11/02 18:29:32;;;;;;;7.03;6.33;;;15.20;41.40;;;;;;10457922;28;20307;-66
2022/11/02 18:34:35;;;;;;;7.70;6.37;;;15.00;41.30;;;;;;10459546;28;20224;-66
2022/11/02 18:39:40;;;;;;;7.83;6.20;;;15.00;41.30;;;;;;10461231;28;20290;-66
2022/11/02 18:44:43;;;;;;;6.93;5.60;;;14.80;41.00;;;;;;10464152;28;20240;-66
2022/11/02 18:49:46;;;;;;;9.07;7.50;;;14.70;41.90;;;;;;10454986;28;20283;-66
2022/11/02 18:54:52;;;;;;;14.80;11.57;;;14.60;41.30;;;;;;10455474;28;20241;-66
2022/11/02 18:59:55;;;;;;;12.80;9.60;;;14.50;41.10;;;;;;10461571;28;20266;-66
2022/11/02 19:04:58;;;;;;;10.50;8.20;;;14.40;41.30;;;;;;10470155;28;20235;-67
2022/11/02 19:10:02;;;;;;;9.40;8.37;;;14.30;41.30;;;;;;10470461;28;20224;-66
2022/11/02 19:15:07;;;;;;;7.83;7.03;;;14.20;41.20;;;;;;10468602;28;20637;-69
2022/11/02 19:20:11;;;;;;;8.87;8.03;;;14.10;41.20;;;;;;10465857;28;20240;-69
2022/11/02 19:25:15;;;;;;;11.50;10.30;;;13.90;41.40;;;;;;10465440;28;20749;-67
2022/11/02 19:30:18;;;;;;;11.27;10.00;;;13.80;41.60;;;;;;10468116;28;20710;-67
2022/11/02 19:35:22;;;;;;;9.10;7.80;;;13.80;41.70;;;;;;10469519;28;20244;-67
2022/11/02 19:40:26;;;;;;;6.00;5.40;;;13.80;41.60;;;;;;10468522;28;20256;-67
2022/11/02 19:45:29;;;;;;;5.90;5.30;;;13.70;41.00;;;;;;10471467;28;20247;-67
2022/11/02 19:50:32;;;;;;;7.17;5.80;;;13.60;41.10;;;;;;10469369;28;20224;-66
2022/11/02 19:55:37;;;;;;;9.43;8.43;;;13.50;41.30;;;;;;10467103;28;20725;-66
2022/11/02 20:00:40;;;;;;;13.27;8.73;;;13.50;41.40;;;;;;10466130;28;20746;-66
2022/11/02 20:05:46;;;;;;;16.23;11.23;;;13.40;41.50;;;;;;10461505;28;20240;-66
2022/11/02 20:10:50;;;;;;;10.13;7.93;;;13.30;41.40;;;;;;10458246;28;20266;-66
2022/11/02 20:15:55;;;;;;;8.03;6.40;;;13.30;41.20;;;;;;10462737;28;20712;-66
2022/11/02 20:21:03;;;;;;;9.07;7.97;;;13.20;41.10;;;;;;10462690;28;20247;-66
2022/11/02 20:26:10;;;;;;;11.60;9.20;;;13.20;41.80;;;;;;10461846;28;20262;-66
2022/11/02 20:31:15;;;;;;;8.90;7.97;;;13.10;41.00;;;;;;10461175;28;20225;-66
2022/11/02 20:36:18;;;;;;;11.27;10.10;;;13.10;41.20;;;;;;10458643;28;20235;-66
2022/11/02 20:41:24;;;;;;;17.00;14.40;;;13.00;41.40;;;;;;10457420;28;21234;-66
2022/11/02 20:46:29;;;;;;;15.20;13.00;;;12.90;41.20;;;;;;10459263;28;20246;-66
2022/11/02 20:51:43;;;;;;;12.80;11.07;;;12.80;41.10;;;;;;10455354;28;20705;-66
2022/11/02 20:56:48;;;;;;;11.53;10.33;;;12.80;41.10;;;;;;10461126;28;20571;-66
2022/11/02 21:01:51;;;;;;;11.80;10.60;;;12.70;41.20;;;;;;10452016;28;20231;-66
2022/11/02 21:06:55;;;;;;;10.17;9.13;;;12.60;41.20;;;;;;10464147;28;20582;-66
2022/11/02 21:17:20;;;;;;;8.73;7.67;;;12.40;41.20;;;;;;10455353;28;20221;-66
2022/11/02 21:22:25;;;;;;;7.67;6.97;;;12.30;41.20;;;;;;10456089;28;20235;-66
2022/11/02 21:27:29;;;;;;;8.53;7.10;;;12.20;41.30;;;;;;10459475;28;20235;-66
2022/11/02 21:32:32;;;;;;;8.47;7.23;;;12.10;41.30;;;;;;10456312;28;20224;-66
2022/11/02 21:37:35;;;;;;;7.87;7.17;;;12.10;41.70;;;;;;10461488;28;20229;-66
2022/11/02 21:42:40;;;;;;;9.23;8.23;;;12.00;41.30;;;;;;10463238;28;20659;-66
2022/11/02 21:47:43;;;;;;;12.33;11.13;;;12.00;41.50;;;;;;10464435;28;20220;-66
2022/11/02 21:52:46;;;;;;;13.30;11.90;;;11.90;41.20;;;;;;10475524;22;20297;-78
2022/11/02 21:57:51;;;;;;;13.50;10.87;;;11.80;41.50;;;;;;10484901;28;20220;-78
2022/11/02 22:02:54;;;;;;;11.37;9.03;;;11.60;41.30;;;;;;10481744;28;20728;-78
2022/11/02 22:18:39;;;;;;;6.73;6.03;;;11.60;41.30;;;;;;10486446;28;20239;-79
2022/11/02 22:23:43;;;;;;;7.23;6.20;;;11.60;41.40;;;;;;10490230;28;20224;-78
2022/11/02 22:28:49;;;;;;;8.40;6.70;;;11.50;41.30;;;;;;10492520;28;20701;-78
2022/11/02 22:33:54;;;;;;;7.30;6.60;;;11.50;41.30;;;;;;10495149;28;20232;-78
2022/11/02 22:38:59;;;;;;;12.43;9.60;;;11.40;41.20;;;;;;10491742;28;20235;-78
2022/11/02 22:44:05;;;;;;;12.50;8.53;;;11.30;41.20;;;;;;10482863;28;20739;-78
2022/11/02 22:49:10;;;;;;;8.77;6.40;;;11.30;41.50;;;;;;10485581;28;20637;-78
2022/11/02 22:54:14;;;;;;;6.77;6.07;;;11.20;41.50;;;;;;10489211;28;20229;-78
2022/11/02 22:59:19;;;;;;;6.50;5.90;;;11.20;41.20;;;;;;10487107;28;20270;-78
2022/11/02 23:04:22;;;;;;;10.47;8.57;;;11.20;41.30;;;;;;10488941;28;20693;-78
2022/11/02 23:09:26;;;;;;;10.70;7.23;;;11.10;41.40;;;;;;10495586;28;20224;-78
2022/11/02 23:14:30;;;;;;;5.63;5.13;;;11.10;41.40;;;;;;10485571;28;20675;-78
2022/11/02 23:19:36;;;;;;;5.87;5.27;;;11.10;41.30;;;;;;10484354;28;20239;-78
2022/11/02 23:40:58;;;;;;;6.03;4.60;;;11.00;41.10;;;;;;10479666;28;20220;-78
2022/11/02 23:46:03;;;;;;;5.00;4.50;;;10.90;41.30;;;;;;10476523;28;20228;-77
2022/11/02 23:56:45;;;;;;;4.90;4.23;;;10.90;41.50;;;;;;10490180;28;20224;-77
